Flight Track Log - Related Links

Times and Time Zones

All times are in EST time to prevent confusion due to time zone crossing. See the CPT8773 flight status page for this flight to view local times or setup timezone preferences in your user account.

Time Position Orientation Groundspeed Altitude Reporting Facility
EST Latitude Longitude Course Direction KTS MPH feet Rate Location/Type
Fri 09:54:05 AM 42.9589 -106.5053 347° North 123 142 8,200  Level Salt Lake Center
Fri 09:55:06 AM 42.9906 -106.5086 356° North 119 137 8,900 689 Climbing Salt Lake Center
Fri 09:56:07 AM 43.0217 -106.5131 354° North 119 137 9,600 738 Climbing Salt Lake Center
Fri 09:57:00 AM 43.0410 -106.6671 307° West  Level Estimated
Fri 09:57:16 AM 43.0633 -106.5133 360° North 118 136 10,500  Level Denver Center
Fri 09:58:00 AM 43.0798 -106.6796 347° North  Level FlightAware Approximate
Fri 09:58:17 AM 43.0958 -106.5161 356° North 119 137 11,000  Level Denver Center
Fri 09:59:00 AM 43.1186 -106.6920 347° North  Level FlightAware Approximate
Fri 09:59:17 AM 43.1258 -106.5197 355° North 117 135 11,600  Level Denver Center
Fri 10:00:18 AM 43.1661 -106.5208 359° North 125 144 12,000 197 Climbing Denver Center
Fri 10:01:19 AM 43.2067 -106.5267 354° North 145 167 12,000  Level Denver Center
Fri 10:02:19 AM 43.2367 -106.5444 337° Northwest 151 174 12,000  Level Denver Center
Fri 10:03:20 AM 43.2614 -106.6056 299° West 144 166 12,000  Level Denver Center
Fri 10:04:13 AM 43.2803 -106.6444 304° West 148 170 12,000  Level Salt Lake Center
Fri 10:05:14 AM 43.3036 -106.6875 307° West 148 170 12,000  Level Salt Lake Center
Fri 10:06:14 AM 43.3308 -106.7378 307° West 147 169 12,000  Level Salt Lake Center
Fri 10:07:15 AM 43.3544 -106.7817 307° West 149 171 12,000 49 Level Salt Lake Center
Fri 10:08:16 AM 43.3764 -106.8239 306° West 145 167 12,100  Climbing Salt Lake Center
Fri 10:09:17 AM 43.4025 -106.8736 306° West 144 166 12,000 -50 Descending Salt Lake Center
Fri 10:10:17 AM 43.4256 -106.9192 305° West 149 171 12,000 50 Level Salt Lake Center
Fri 10:11:18 AM 43.4486 -106.9644 305° West 145 167 12,100 49 Climbing Salt Lake Center
Fri 10:12:19 AM 43.4733 -107.0111 306° West 149 171 12,100  Level Salt Lake Center
Fri 10:13:20 AM 43.4972 -107.0581 305° West 151 174 12,100 -49 Level Salt Lake Center
Fri 10:14:21 AM 43.5222 -107.1047 306° West 151 174 12,000  Descending Salt Lake Center
Fri 10:15:21 AM 43.5453 -107.1517 304° West 150 173 12,100  Climbing Salt Lake Center
Fri 10:16:22 AM 43.5694 -107.1953 307° West 145 167 12,000  Descending Salt Lake Center
Fri 10:17:23 AM 43.5928 -107.2389 306° West 142 163 12,100 49 Climbing Salt Lake Center
Fri 10:18:24 AM 43.6158 -107.2836 305° West 143 165 12,100  Level Salt Lake Center
Fri 10:19:25 AM 43.6400 -107.3272 307° West 143 165 12,100  Level Salt Lake Center
Fri 10:20:26 AM 43.6642 -107.3725 306° West 145 167 12,100  Level Salt Lake Center
Fri 10:21:26 AM 43.6925 -107.4247 307° West 144 166 12,100  Level Salt Lake Center
Fri 10:22:27 AM 43.7172 -107.4683 308° West 144 166 12,100  Level Salt Lake Center
Fri 10:23:28 AM 43.7406 -107.5131 306° West 144 166 12,100  Level Salt Lake Center
Fri 10:24:29 AM 43.7636 -107.5592 305° West 144 166 12,100  Level Salt Lake Center
Fri 10:25:30 AM 43.7867 -107.6042 305° West 144 166 12,100  Level Salt Lake Center
Fri 10:26:31 AM 43.8097 -107.6467 307° West 142 163 12,100  Level Salt Lake Center
Fri 10:27:32 AM 43.8325 -107.6903 306° West 141 162 12,100  Level Salt Lake Center
Fri 10:28:33 AM 43.8564 -107.7350 307° West 142 163 12,100  Level Salt Lake Center
Fri 10:29:34 AM 43.8794 -107.7786 306° West 142 163 12,100  Level Salt Lake Center
Fri 10:30:35 AM 43.9025 -107.8233 306° West 142 163 12,100  Level Salt Lake Center
Fri 10:31:35 AM 43.9261 -107.8689 306° West 143 165 12,100  Level Salt Lake Center
Fri 10:32:36 AM 43.9497 -107.9136 306° West 144 166 12,100  Level Salt Lake Center
Fri 10:33:37 AM 43.9725 -107.9569 306° West 142 163 12,100  Level Salt Lake Center
Fri 10:34:38 AM 43.9950 -107.9994 306° West 140 161 12,100 -148 Level Salt Lake Center
Fri 10:35:39 AM 44.0233 -108.0533 306° West 141 162 11,800 -246 Descending Salt Lake Center
Fri 10:36:40 AM 44.0481 -108.0986 307° West 143 165 11,600 -295 Descending Salt Lake Center
Fri 10:37:41 AM 44.0725 -108.1461 306° West 147 169 11,200 -344 Descending Salt Lake Center
Fri 10:38:42 AM 44.0983 -108.1933 307° West 150 173 10,900 -344 Descending Salt Lake Center
Fri 10:39:43 AM 44.1242 -108.2433 306° West 153 176 10,500 -344 Descending Salt Lake Center
Fri 10:40:44 AM 44.1508 -108.2933 307° West 157 181 10,200 -197 Descending Salt Lake Center
Fri 10:41:45 AM 44.1756 -108.3436 304° West 158 182 10,100 -98 Descending Salt Lake Center
Fri 10:42:46 AM 44.1992 -108.3925 304° West 156 180 10,000 -49 Descending Salt Lake Center
Fri 10:43:47 AM 44.2203 -108.4400 302° West 152 175 10,000  Level Salt Lake Center
Fri 10:44:48 AM 44.2442 -108.4869 305° West 149 171 10,000  Level Salt Lake Center
Fri 10:45:49 AM 44.2694 -108.5311 309° West 148 170 10,000  Level Salt Lake Center
Fri 10:46:50 AM 44.2936 -108.5778 306° West 147 169 10,000  Level Salt Lake Center
Fri 10:47:51 AM 44.3169 -108.6242 305° West 147 169 10,000  Level Salt Lake Center

Login

Don't have an account? Register now (free) for customized features, flight alerts, and more!